createdAt,value
2022-07-26T00:01:19.876Z,16.80
2022-07-26T00:03:46.665Z,15.73
2022-07-26T00:06:12.997Z,15.88
2022-07-26T00:08:39.352Z,15.18
2022-07-26T00:11:07.459Z,12.57
2022-07-26T00:13:34.075Z,15.23
2022-07-26T00:16:00.584Z,14.32
2022-07-26T00:18:27.101Z,17.20
2022-07-26T00:20:53.561Z,14.88
2022-07-26T00:23:22.231Z,19.27
2022-07-26T00:25:48.720Z,17.42
2022-07-26T00:28:15.105Z,16.65
2022-07-26T00:30:41.478Z,16.83
2022-07-26T00:33:07.838Z,14.95
2022-07-26T00:35:34.909Z,15.10
2022-07-26T00:38:01.275Z,15.43
2022-07-26T00:40:27.717Z,15.27
2022-07-26T00:42:54.179Z,16.00
2022-07-26T00:45:20.642Z,16.15
2022-07-26T00:47:47.103Z,12.20
2022-07-26T00:50:14.701Z,15.70
2022-07-26T00:52:48.317Z,13.55
2022-07-26T00:55:15.412Z,21.33
2022-07-26T00:57:41.761Z,18.60
2022-07-26T01:00:09.646Z,12.45
2022-07-26T01:02:36.156Z,21.30
2022-07-26T01:05:02.734Z,18.63
2022-07-26T01:07:29.478Z,20.58
2022-07-26T01:09:55.894Z,23.65
2022-07-26T01:12:22.236Z,15.05
2022-07-26T01:14:48.596Z,18.67
2022-07-26T01:17:15.113Z,19.70
2022-07-26T01:19:41.907Z,19.40
2022-07-26T01:22:13.893Z,18.67
2022-07-26T01:24:40.901Z,17.52
2022-07-26T01:27:07.963Z,17.67
2022-07-26T01:29:36.070Z,14.95
2022-07-26T01:32:04.894Z,14.35
2022-07-26T01:34:31.409Z,11.95
2022-07-26T01:36:57.791Z,15.75
2022-07-26T01:39:24.122Z,15.25
2022-07-26T01:41:50.649Z,11.80
2022-07-26T01:44:17.018Z,13.02
2022-07-26T01:46:43.378Z,16.88
2022-07-26T01:49:09.934Z,15.40
2022-07-26T01:51:36.495Z,9.93
2022-07-26T01:54:02.907Z,12.05
2022-07-26T01:56:29.207Z,10.75
2022-07-26T01:58:55.590Z,7.78
2022-07-26T02:01:38.448Z,11.05
2022-07-26T02:04:28.927Z,7.30
2022-07-26T02:06:55.309Z,9.20
2022-07-26T02:09:21.633Z,6.57
2022-07-26T02:11:49.195Z,11.80
2022-07-26T02:14:25.571Z,14.00
2022-07-26T02:16:59.859Z,9.48
2022-07-26T02:19:27.495Z,9.35
2022-07-26T02:21:53.801Z,5.55
2022-07-26T02:24:20.326Z,6.68
2022-07-26T02:26:46.709Z,7.22
2022-07-26T02:29:13.102Z,9.48
2022-07-26T02:31:39.527Z,9.40
2022-07-26T02:34:06.186Z,7.30
2022-07-26T02:36:32.761Z,3.83
2022-07-26T02:38:59.116Z,4.35
2022-07-26T02:41:25.466Z,3.85
2022-07-26T02:43:51.826Z,5.32
2022-07-26T02:46:18.224Z,2.30
2022-07-26T02:48:44.694Z,3.83
2022-07-26T02:51:11.067Z,5.97
2022-07-26T02:53:37.543Z,5.10
2022-07-26T02:56:03.983Z,7.07
2022-07-26T02:58:30.305Z,8.20
2022-07-26T03:00:57.039Z,5.65
2022-07-26T03:03:23.410Z,4.32
2022-07-26T03:05:49.770Z,5.97
2022-07-26T03:08:16.157Z,6.95
2022-07-26T03:10:42.490Z,9.93
2022-07-26T03:13:08.824Z,7.85
2022-07-26T03:15:35.190Z,8.88
2022-07-26T03:18:02.015Z,4.50
2022-07-26T03:20:28.706Z,8.98
2022-07-26T03:22:55.055Z,5.95
2022-07-26T03:25:21.432Z,5.20
2022-07-26T03:27:47.789Z,6.95
2022-07-26T03:30:14.137Z,8.32
2022-07-26T03:32:40.689Z,2.95
2022-07-26T03:35:07.648Z,5.90
2022-07-26T03:37:46.228Z,8.88
2022-07-26T03:40:13.577Z,5.63
2022-07-26T03:42:39.908Z,7.75
2022-07-26T03:45:06.524Z,6.25
2022-07-26T03:47:32.813Z,2.83
2022-07-26T03:49:59.141Z,12.30
2022-07-26T03:52:25.428Z,6.88
2022-07-26T03:54:51.769Z,8.80
2022-07-26T03:57:18.099Z,5.90
2022-07-26T03:59:44.433Z,4.03
2022-07-26T04:02:11.094Z,5.95
2022-07-26T04:04:37.429Z,9.85
2022-07-26T04:07:03.913Z,4.60
2022-07-26T04:09:30.258Z,9.40
2022-07-26T04:11:56.616Z,7.88
2022-07-26T04:14:22.967Z,7.95
2022-07-26T04:16:49.332Z,5.80
2022-07-26T04:19:15.683Z,7.55
2022-07-26T04:21:42.008Z,6.68
2022-07-26T04:24:08.776Z,6.55
2022-07-26T04:26:35.317Z,5.32
2022-07-26T04:29:01.762Z,4.63
2022-07-26T04:31:28.157Z,6.63
2022-07-26T04:34:02.678Z,4.10
2022-07-26T04:36:29.009Z,5.10
2022-07-26T04:38:55.322Z,10.57
2022-07-26T04:41:21.593Z,4.90
2022-07-26T04:43:47.899Z,6.45
2022-07-26T04:46:14.290Z,8.93
2022-07-26T04:48:40.701Z,4.10
2022-07-26T04:51:07.081Z,8.70
2022-07-26T04:53:33.422Z,7.07
2022-07-26T04:55:59.735Z,4.25
2022-07-26T04:58:26.085Z,6.25
2022-07-26T05:03:38.983Z,5.00
2022-07-26T05:06:05.381Z,8.45
2022-07-26T05:08:31.693Z,8.07
2022-07-26T05:10:58.103Z,3.85
2022-07-26T05:13:30.370Z,8.93
2022-07-26T05:15:57.525Z,6.05
2022-07-26T05:18:23.802Z,9.48
2022-07-26T05:20:51.408Z,7.72
2022-07-26T05:23:17.777Z,5.85
2022-07-26T05:25:44.093Z,8.85
2022-07-26T05:28:10.440Z,6.55
2022-07-26T05:30:36.775Z,5.72
2022-07-26T05:33:03.331Z,6.40
2022-07-26T05:35:29.609Z,6.10
2022-07-26T05:37:56.402Z,4.63
2022-07-26T05:40:22.697Z,6.28
2022-07-26T05:42:48.994Z,5.90
2022-07-26T05:45:15.349Z,4.72
2022-07-26T05:47:41.618Z,6.05
2022-07-26T05:50:08.164Z,4.68
2022-07-26T05:52:34.522Z,4.63
2022-07-26T05:55:00.890Z,5.25
2022-07-26T05:57:27.216Z,5.90
2022-07-26T05:59:56.106Z,6.80
2022-07-26T06:02:22.553Z,5.80
2022-07-26T06:04:48.989Z,10.18
2022-07-26T06:07:15.669Z,5.53
2022-07-26T06:09:42.037Z,4.47
2022-07-26T06:12:09.921Z,6.85
2022-07-26T06:14:36.212Z,6.57
2022-07-26T06:17:04.320Z,3.83
2022-07-26T06:19:30.926Z,6.90
2022-07-26T06:21:57.196Z,4.47
2022-07-26T06:24:23.843Z,3.38
2022-07-26T06:26:56.805Z,4.25
2022-07-26T06:29:23.647Z,6.85
2022-07-26T06:31:59.897Z,5.43
2022-07-26T06:34:26.336Z,4.85
2022-07-26T06:36:52.622Z,5.50
2022-07-26T06:39:18.989Z,6.03
2022-07-26T06:41:45.274Z,7.30
2022-07-26T06:44:11.902Z,3.75
2022-07-26T06:46:38.361Z,4.65
2022-07-26T06:49:04.907Z,5.88
2022-07-26T06:51:33.473Z,8.85
2022-07-26T06:54:04.563Z,5.70
2022-07-26T06:56:32.403Z,8.10
2022-07-26T06:58:58.699Z,8.05
2022-07-26T07:01:57.855Z,7.45
2022-07-26T07:04:11.701Z,6.20
2022-07-26T07:06:38.238Z,5.32
2022-07-26T07:09:04.581Z,7.88
2022-07-26T07:11:34.147Z,6.97
2022-07-26T07:14:03.110Z,11.18
2022-07-26T07:16:29.541Z,4.93
2022-07-26T07:18:55.887Z,7.22
2022-07-26T07:21:22.182Z,6.65
2022-07-26T07:23:48.480Z,7.18
2022-07-26T07:26:16.458Z,7.55
2022-07-26T07:28:42.937Z,6.72
2022-07-26T07:31:09.496Z,7.50
2022-07-26T07:33:43.705Z,6.65
2022-07-26T07:36:19.458Z,3.75
2022-07-26T07:38:46.413Z,5.07
2022-07-26T07:41:12.710Z,7.07
2022-07-26T07:43:38.989Z,4.80
2022-07-26T07:46:05.408Z,2.63
2022-07-26T07:48:31.791Z,4.22
2022-07-26T07:50:58.115Z,3.72
2022-07-26T07:53:24.986Z,4.18
2022-07-26T07:55:52.740Z,6.68
2022-07-26T07:58:21.763Z,4.43
2022-07-26T08:00:48.461Z,1.77
2022-07-26T08:03:17.983Z,3.38
2022-07-26T08:05:45.361Z,5.50
2022-07-26T08:08:11.709Z,4.07
2022-07-26T08:10:41.793Z,7.78
2022-07-26T08:13:15.467Z,2.83
2022-07-26T08:15:44.588Z,3.42
2022-07-26T08:18:15.624Z,3.75
2022-07-26T08:20:42.987Z,4.05
2022-07-26T08:23:09.841Z,2.30
2022-07-26T08:25:38.088Z,4.95
2022-07-26T08:28:15.492Z,4.25
2022-07-26T08:30:55.261Z,4.50
2022-07-26T08:33:21.590Z,4.80
2022-07-26T08:35:49.492Z,7.47
2022-07-26T08:38:15.794Z,2.10
2022-07-26T08:40:42.113Z,3.35
2022-07-26T08:43:08.960Z,6.50
2022-07-26T08:45:35.291Z,4.97
2022-07-26T08:48:18.437Z,8.13
2022-07-26T08:50:45.273Z,4.70
2022-07-26T08:53:12.986Z,3.17
2022-07-26T08:56:08.074Z,2.80
2022-07-26T08:58:25.928Z,8.55
2022-07-26T09:01:09.123Z,2.88
2022-07-26T09:03:38.887Z,3.00
2022-07-26T09:06:34.434Z,9.63
2022-07-26T09:09:10.268Z,4.13
2022-07-26T09:11:36.848Z,6.70
2022-07-26T09:14:04.814Z,3.80
2022-07-26T09:16:33.331Z,4.40
2022-07-26T09:19:28.711Z,4.43
2022-07-26T09:21:55.613Z,3.95
2022-07-26T09:24:41.289Z,9.43
2022-07-26T09:29:43.109Z,5.05
2022-07-26T09:32:10.292Z,4.97
2022-07-26T09:34:48.075Z,3.40
2022-07-26T09:37:18.822Z,8.63
2022-07-26T09:39:53.994Z,4.07
2022-07-26T09:42:29.437Z,7.47
2022-07-26T09:44:57.349Z,5.57
2022-07-26T09:47:34.623Z,7.55
2022-07-26T09:50:17.278Z,4.78
2022-07-26T09:52:58.764Z,4.53
2022-07-26T09:55:25.092Z,3.60
2022-07-26T09:57:52.761Z,5.32
2022-07-26T10:00:19.248Z,6.65
2022-07-26T10:02:45.554Z,2.08
2022-07-26T10:05:12.006Z,3.35
2022-07-26T10:07:38.447Z,2.50
2022-07-26T10:10:07.741Z,4.45
2022-07-26T10:12:34.793Z,2.13
2022-07-26T10:15:01.169Z,5.68
2022-07-26T10:17:31.765Z,4.85
2022-07-26T10:20:09.347Z,4.68
2022-07-26T10:22:45.814Z,5.07
2022-07-26T10:25:18.056Z,5.88
2022-07-26T10:27:48.995Z,3.33
2022-07-26T10:30:18.452Z,2.72
2022-07-26T10:32:57.259Z,3.28
2022-07-26T10:35:41.028Z,3.53
2022-07-26T10:38:08.367Z,6.68
2022-07-26T10:40:35.643Z,4.85
2022-07-26T10:43:37.924Z,8.02
2022-07-26T10:46:23.197Z,6.13
2022-07-26T10:48:56.829Z,5.20
2022-07-26T10:51:27.587Z,9.02
2022-07-26T10:54:00.825Z,5.32
2022-07-26T10:56:32.646Z,6.03
2022-07-26T10:58:59.851Z,7.03
2022-07-26T11:01:33.477Z,6.80
2022-07-26T11:04:00.061Z,5.10
2022-07-26T11:06:31.081Z,13.30
2022-07-26T11:08:57.430Z,4.70
2022-07-26T11:11:30.822Z,6.95
2022-07-26T11:14:11.039Z,8.05
2022-07-26T11:16:40.808Z,4.13
2022-07-26T11:19:19.071Z,5.00
2022-07-26T11:21:46.923Z,6.72
2022-07-26T11:24:13.575Z,5.05
2022-07-26T11:26:42.209Z,3.40
2022-07-26T11:29:08.508Z,3.17
2022-07-26T11:31:51.507Z,4.60
2022-07-26T11:34:26.590Z,9.70
2022-07-26T11:36:55.816Z,4.45
2022-07-26T11:39:23.423Z,3.83
2022-07-26T11:41:50.500Z,10.18
2022-07-26T11:44:17.690Z,6.55
2022-07-26T11:46:54.246Z,6.57
2022-07-26T11:49:59.814Z,8.80
2022-07-26T11:52:15.157Z,7.57
2022-07-26T11:54:52.104Z,8.98
2022-07-26T11:57:18.944Z,6.05
2022-07-26T11:59:46.821Z,7.38
2022-07-26T12:02:13.475Z,16.80
2022-07-26T12:04:41.343Z,6.00
2022-07-26T12:07:12.023Z,7.80
2022-07-26T12:09:40.387Z,10.55
2022-07-26T12:12:07.750Z,17.45
2022-07-26T12:14:35.449Z,9.80
2022-07-26T12:17:14.873Z,6.97
2022-07-26T12:19:42.939Z,11.88
2022-07-26T12:22:19.340Z,3.67
2022-07-26T12:24:47.413Z,6.47
2022-07-26T12:27:21.432Z,12.75
2022-07-26T12:29:49.956Z,10.13
2022-07-26T12:32:20.405Z,10.23
2022-07-26T12:35:01.902Z,9.20
2022-07-26T12:37:40.084Z,8.77
2022-07-26T12:40:16.008Z,9.07
2022-07-26T12:45:12.382Z,4.30
2022-07-26T12:47:40.261Z,13.13
2022-07-26T12:50:08.479Z,9.48
2022-07-26T12:52:35.380Z,9.82
2022-07-26T12:55:02.035Z,8.65
2022-07-26T12:57:28.406Z,6.50
2022-07-26T12:59:55.592Z,10.00
2022-07-26T13:02:21.964Z,8.98
2022-07-26T13:04:48.863Z,6.90
2022-07-26T13:07:15.898Z,16.85
2022-07-26T13:09:42.628Z,9.68
2022-07-26T13:12:09.330Z,7.45
2022-07-26T13:14:36.978Z,11.35
2022-07-26T13:17:03.646Z,7.40
2022-07-26T13:19:30.212Z,10.32
2022-07-26T13:21:57.314Z,8.68
2022-07-26T13:24:24.434Z,7.53
2022-07-26T13:26:53.199Z,7.32
2022-07-26T13:29:20.042Z,8.02
2022-07-26T13:31:46.648Z,13.52
2022-07-26T13:34:13.446Z,9.98
2022-07-26T13:36:40.301Z,12.30
2022-07-26T13:39:10.171Z,7.35
2022-07-26T13:41:37.604Z,8.45
2022-07-26T13:44:04.270Z,9.20
2022-07-26T13:46:33.495Z,4.78
2022-07-26T13:49:01.723Z,6.28
2022-07-26T13:51:48.930Z,5.32
2022-07-26T13:54:17.275Z,5.78
2022-07-26T13:56:44.606Z,8.68
2022-07-26T13:59:11.674Z,5.70
2022-07-26T14:01:43.611Z,4.20
2022-07-26T14:04:12.832Z,4.38
2022-07-26T14:06:41.345Z,7.18
2022-07-26T14:09:10.916Z,6.57
2022-07-26T14:11:37.739Z,5.88
2022-07-26T14:14:04.459Z,5.55
2022-07-26T14:16:31.073Z,7.03
2022-07-26T14:18:58.227Z,4.55
2022-07-26T14:21:25.247Z,6.93
2022-07-26T14:23:52.159Z,11.80
2022-07-26T14:26:18.549Z,6.22
2022-07-26T14:28:44.983Z,3.53
2022-07-26T14:31:11.465Z,4.45
2022-07-26T14:33:38.232Z,6.05
2022-07-26T14:36:04.707Z,7.80
2022-07-26T14:38:31.123Z,5.90
2022-07-26T14:40:57.959Z,4.85
2022-07-26T14:43:26.059Z,4.18
2022-07-26T14:45:53.333Z,4.95
2022-07-26T14:48:44.285Z,8.07
2022-07-26T14:51:09.608Z,6.82
2022-07-26T14:53:36.270Z,7.28
2022-07-26T14:56:02.615Z,4.55
2022-07-26T14:58:35.213Z,9.85
2022-07-26T15:01:01.669Z,8.13
2022-07-26T15:03:30.359Z,6.60
2022-07-26T15:05:57.364Z,4.53
2022-07-26T15:08:23.711Z,3.90
2022-07-26T15:10:51.398Z,4.63
2022-07-26T15:13:17.681Z,5.88
2022-07-26T15:15:44.078Z,11.35
2022-07-26T15:18:11.063Z,6.20
2022-07-26T15:20:41.058Z,5.80
2022-07-26T15:23:11.827Z,6.78
2022-07-26T15:25:39.418Z,5.57
2022-07-26T15:28:05.809Z,6.10
2022-07-26T15:30:32.610Z,4.75
2022-07-26T15:32:59.129Z,6.05
2022-07-26T15:35:25.620Z,6.20
2022-07-26T15:37:52.040Z,7.28
2022-07-26T15:40:18.430Z,14.13
2022-07-26T15:42:45.900Z,5.70
2022-07-26T15:45:12.838Z,3.58
2022-07-26T15:48:01.075Z,5.80
2022-07-26T15:50:26.116Z,2.63
2022-07-26T15:52:52.550Z,3.72
2022-07-26T15:55:18.875Z,2.17
2022-07-26T15:57:45.653Z,3.67
2022-07-26T16:00:13.556Z,10.45
2022-07-26T16:02:40.529Z,3.70
2022-07-26T16:05:07.454Z,4.47
2022-07-26T16:07:33.733Z,5.68
2022-07-26T16:10:01.554Z,4.75
2022-07-26T16:12:28.571Z,3.08
2022-07-26T16:14:54.881Z,5.05
2022-07-26T16:17:21.222Z,7.88
2022-07-26T16:19:47.567Z,5.10
2022-07-26T16:22:13.831Z,3.42
2022-07-26T16:24:40.302Z,4.10
2022-07-26T16:27:06.573Z,3.88
2022-07-26T16:29:32.859Z,5.15
2022-07-26T16:32:00.259Z,5.15
2022-07-26T16:34:27.373Z,3.85
2022-07-26T16:36:53.708Z,2.72
2022-07-26T16:39:23.171Z,4.80
2022-07-26T16:41:49.463Z,5.13
2022-07-26T16:44:15.729Z,9.57
2022-07-26T16:46:42.474Z,5.93
2022-07-26T16:49:10.886Z,5.95
2022-07-26T16:51:37.459Z,5.07
2022-07-26T16:54:03.852Z,6.57
2022-07-26T16:56:30.137Z,7.40
2022-07-26T16:58:56.404Z,5.43
2022-07-26T17:01:22.809Z,6.07
2022-07-26T17:03:49.223Z,6.72
2022-07-26T17:06:15.511Z,3.28
2022-07-26T17:08:41.803Z,5.35
2022-07-26T17:11:08.328Z,8.07
2022-07-26T17:13:34.853Z,4.35
2022-07-26T17:16:02.304Z,8.40
2022-07-26T17:18:29.408Z,8.88
2022-07-26T17:20:56.990Z,6.97
2022-07-26T17:23:23.403Z,6.47
2022-07-26T17:25:49.719Z,9.63
2022-07-26T17:28:16.020Z,7.30
2022-07-26T17:30:42.291Z,4.90
2022-07-26T17:33:08.745Z,6.47
2022-07-26T17:35:35.227Z,7.03
2022-07-26T17:38:01.603Z,4.25
2022-07-26T17:40:29.929Z,4.85
2022-07-26T17:42:56.300Z,5.20
2022-07-26T17:45:22.658Z,7.53
2022-07-26T17:47:48.950Z,3.08
2022-07-26T17:53:01.550Z,5.18
2022-07-26T17:55:27.842Z,4.70
2022-07-26T17:58:07.933Z,6.32
2022-07-26T18:00:34.396Z,3.85
2022-07-26T18:03:00.700Z,4.32
2022-07-26T18:05:33.992Z,2.47
2022-07-26T18:08:01.375Z,2.90
2022-07-26T18:10:28.167Z,3.10
2022-07-26T18:12:54.707Z,6.68
2022-07-26T18:15:21.128Z,6.72
2022-07-26T18:17:48.641Z,4.18
2022-07-26T18:20:14.978Z,3.45
2022-07-26T18:22:41.272Z,2.88
2022-07-26T18:25:08.059Z,6.57
2022-07-26T18:27:34.394Z,5.75
2022-07-26T18:30:00.760Z,3.67
2022-07-26T18:32:28.093Z,2.50
2022-07-26T18:34:55.797Z,2.58
2022-07-26T18:37:22.101Z,5.97
2022-07-26T18:39:54.002Z,14.90
2022-07-26T18:42:23.458Z,2.67
2022-07-26T18:44:49.831Z,3.25
2022-07-26T18:47:16.144Z,6.53
2022-07-26T18:49:43.511Z,5.28
2022-07-26T18:52:09.785Z,8.32
2022-07-26T18:54:36.752Z,4.05
2022-07-26T18:57:03.331Z,1.98
2022-07-26T18:59:30.891Z,5.25
2022-07-26T19:01:58.896Z,2.17
2022-07-26T19:04:25.884Z,1.90
2022-07-26T19:06:52.230Z,4.70
2022-07-26T19:09:24.930Z,2.88
2022-07-26T19:11:51.269Z,1.55
2022-07-26T19:14:17.550Z,3.00
2022-07-26T19:16:43.935Z,3.25
2022-07-26T19:19:10.610Z,7.90
2022-07-26T19:21:40.775Z,3.47
2022-07-26T19:24:07.160Z,3.40
2022-07-26T19:26:34.065Z,5.30
2022-07-26T19:29:00.509Z,5.07
2022-07-26T19:31:27.906Z,3.22
2022-07-26T19:33:54.274Z,4.20
2022-07-26T19:36:25.629Z,3.70
2022-07-26T19:38:52.983Z,2.05
2022-07-26T19:41:22.191Z,4.18
2022-07-26T19:43:48.518Z,1.40
2022-07-26T19:46:14.943Z,8.02
2022-07-26T19:48:41.434Z,3.50
2022-07-26T19:51:07.804Z,4.53
2022-07-26T19:53:34.118Z,3.97
2022-07-26T19:56:00.470Z,2.35
2022-07-26T19:58:29.085Z,5.20
2022-07-26T20:00:55.382Z,4.97
2022-07-26T20:03:21.669Z,3.08
2022-07-26T20:05:49.810Z,1.77
2022-07-26T20:08:16.219Z,4.45
2022-07-26T20:10:42.522Z,2.15
2022-07-26T20:13:08.833Z,7.18
2022-07-26T20:15:35.182Z,3.70
2022-07-26T20:18:01.513Z,5.88
2022-07-26T20:20:27.838Z,2.75
2022-07-26T20:22:54.237Z,5.03
2022-07-26T20:25:21.892Z,9.73
2022-07-26T20:27:49.785Z,4.00
2022-07-26T20:30:16.240Z,3.78
2022-07-26T20:32:42.563Z,1.42
2022-07-26T20:35:08.888Z,1.58
2022-07-26T20:37:35.617Z,3.38
2022-07-26T20:40:01.930Z,3.72
2022-07-26T20:42:28.240Z,2.58
2022-07-26T20:44:54.945Z,3.30
2022-07-26T20:47:21.346Z,1.83
2022-07-26T20:49:47.727Z,3.25
2022-07-26T20:52:14.236Z,2.50
2022-07-26T20:54:40.527Z,1.98
2022-07-26T20:57:06.811Z,1.92
2022-07-26T20:59:34.912Z,9.18
2022-07-26T21:02:01.325Z,2.75
2022-07-26T21:04:27.651Z,3.22
2022-07-26T21:06:53.947Z,5.45
2022-07-26T21:09:20.335Z,2.72
2022-07-26T21:11:46.787Z,7.68
2022-07-26T21:14:13.152Z,3.75
2022-07-26T21:16:39.558Z,2.75
2022-07-26T21:19:06.069Z,3.00
2022-07-26T21:21:34.198Z,2.97
2022-07-26T21:24:00.603Z,1.58
2022-07-26T21:26:26.920Z,6.95
2022-07-26T21:28:53.243Z,3.10
2022-07-26T21:31:20.327Z,4.97
2022-07-26T21:33:46.611Z,4.32
2022-07-26T21:36:14.243Z,3.13
2022-07-26T21:38:41.194Z,3.50
2022-07-26T21:41:07.504Z,2.58
2022-07-26T21:43:33.881Z,1.92
2022-07-26T21:46:00.365Z,6.80
2022-07-26T21:48:26.693Z,2.90
2022-07-26T21:50:52.996Z,4.05
2022-07-26T21:53:19.284Z,4.68
2022-07-26T21:55:45.553Z,3.40
2022-07-26T21:58:12.451Z,3.45
2022-07-26T22:00:39.217Z,6.03
2022-07-26T22:03:06.345Z,6.25
2022-07-26T22:05:37.764Z,7.35
2022-07-26T22:08:10.647Z,4.28
2022-07-26T22:10:43.458Z,5.18
2022-07-26T22:13:11.134Z,3.80
2022-07-26T22:15:37.611Z,5.70
2022-07-26T22:18:03.947Z,4.38
2022-07-26T22:20:30.932Z,4.15
2022-07-26T22:22:58.668Z,5.25
2022-07-26T22:25:25.075Z,4.15
2022-07-26T22:27:51.483Z,4.30
2022-07-26T22:30:18.246Z,4.40
2022-07-26T22:32:44.690Z,1.08
2022-07-26T22:35:12.565Z,2.85
2022-07-26T22:37:38.926Z,4.85
2022-07-26T22:40:06.307Z,3.42
2022-07-26T22:42:32.673Z,8.75
2022-07-26T22:44:58.941Z,5.03
2022-07-26T22:47:28.967Z,5.15
2022-07-26T22:49:55.252Z,5.43
2022-07-26T22:52:21.564Z,5.45
2022-07-26T22:54:47.818Z,4.00
2022-07-26T22:57:14.436Z,4.25
2022-07-26T22:59:40.740Z,3.65
2022-07-26T23:02:07.005Z,4.22
2022-07-26T23:04:33.283Z,4.93
2022-07-26T23:07:00.618Z,8.10
2022-07-26T23:09:27.772Z,3.65
2022-07-26T23:11:54.058Z,2.55
2022-07-26T23:14:20.352Z,4.40
2022-07-26T23:16:46.686Z,3.63
2022-07-26T23:19:13.552Z,7.50
2022-07-26T23:21:40.005Z,4.68
2022-07-26T23:24:06.434Z,4.25
2022-07-26T23:26:32.713Z,3.88
2022-07-26T23:28:59.013Z,5.05
2022-07-26T23:31:25.427Z,3.40
2022-07-26T23:33:54.651Z,6.07
2022-07-26T23:36:28.322Z,10.30
2022-07-26T23:38:55.331Z,3.63
2022-07-26T23:41:21.802Z,3.47
2022-07-26T23:43:48.128Z,5.15
2022-07-26T23:46:14.512Z,10.27
2022-07-26T23:48:41.157Z,5.32
2022-07-26T23:51:07.623Z,9.30
2022-07-26T23:53:33.993Z,4.82
2022-07-26T23:56:00.441Z,4.50
2022-07-26T23:58:26.793Z,5.65
